sensor_id;sensor_type;location;lat;lon;timestamp;pressure;altitude;pressure_sealevel;temperature;humidity
55424;BME280;41294;42.666;23.350;2023-03-01T00:01:58;95534.78;;;6.69;100.00
55424;BME280;41294;42.666;23.350;2023-03-01T00:04:24;95524.03;;;6.63;100.00
55424;BME280;41294;42.666;23.350;2023-03-01T00:06:50;95517.00;;;6.60;100.00
55424;BME280;41294;42.666;23.350;2023-03-01T00:09:15;95524.25;;;6.50;100.00
55424;BME280;41294;42.666;23.350;2023-03-01T00:11:41;95524.31;;;6.46;100.00
55424;BME280;41294;42.666;23.350;2023-03-01T00:14:06;95516.53;;;6.43;100.00
55424;BME280;41294;42.666;23.350;2023-03-01T00:16:35;95523.03;;;6.57;100.00
55424;BME280;41294;42.666;23.350;2023-03-01T00:19:01;95509.03;;;6.67;100.00
55424;BME280;41294;42.666;23.350;2023-03-01T00:21:27;95511.19;;;6.72;100.00
55424;BME280;41294;42.666;23.350;2023-03-01T00:23:53;95505.28;;;6.68;100.00
55424;BME280;41294;42.666;23.350;2023-03-01T00:26:23;95504.47;;;6.71;100.00
55424;BME280;41294;42.666;23.350;2023-03-01T00:28:49;95493.00;;;6.43;100.00
55424;BME280;41294;42.666;23.350;2023-03-01T00:31:18;95499.22;;;6.26;100.00
55424;BME280;41294;42.666;23.350;2023-03-01T00:33:44;95491.34;;;6.29;100.00
55424;BME280;41294;42.666;23.350;2023-03-01T00:36:12;95483.88;;;6.28;100.00
55424;BME280;41294;42.666;23.350;2023-03-01T00:38:40;95476.72;;;6.32;100.00
55424;BME280;41294;42.666;23.350;2023-03-01T00:41:08;95477.38;;;6.39;100.00
55424;BME280;41294;42.666;23.350;2023-03-01T00:43:34;95464.31;;;6.13;100.00
55424;BME280;41294;42.666;23.350;2023-03-01T00:46:09;95479.88;;;6.20;100.00
55424;BME280;41294;42.666;23.350;2023-03-01T00:48:35;95488.84;;;6.19;100.00
55424;BME280;41294;42.666;23.350;2023-03-01T00:51:12;95486.25;;;6.19;100.00
55424;BME280;41294;42.666;23.350;2023-03-01T00:53:38;95482.13;;;6.21;100.00
55424;BME280;41294;42.666;23.350;2023-03-01T00:56:05;95477.72;;;6.15;100.00
55424;BME280;41294;42.666;23.350;2023-03-01T00:58:31;95468.81;;;6.12;100.00
55424;BME280;41294;42.666;23.350;2023-03-01T01:00:57;95469.47;;;6.16;100.00
55424;BME280;41294;42.666;23.350;2023-03-01T01:03:23;95469.63;;;6.32;100.00
55424;BME280;41294;42.666;23.350;2023-03-01T01:05:51;95498.78;;;6.31;100.00
55424;BME280;41294;42.666;23.350;2023-03-01T01:08:17;95481.13;;;6.38;100.00
55424;BME280;41294;42.666;23.350;2023-03-01T01:10:44;95479.22;;;6.39;100.00
55424;BME280;41294;42.666;23.350;2023-03-01T01:13:09;95478.88;;;6.37;100.00
55424;BME280;41294;42.666;23.350;2023-03-01T01:15:34;95482.16;;;6.18;100.00
55424;BME280;41294;42.666;23.350;2023-03-01T01:18:00;95485.81;;;6.24;100.00
55424;BME280;41294;42.666;23.350;2023-03-01T01:20:26;95486.69;;;6.14;100.00
55424;BME280;41294;42.666;23.350;2023-03-01T01:22:51;95479.31;;;6.09;100.00
55424;BME280;41294;42.666;23.350;2023-03-01T01:25:18;95484.53;;;6.09;100.00
55424;BME280;41294;42.666;23.350;2023-03-01T01:27:43;95483.31;;;6.17;100.00
55424;BME280;41294;42.666;23.350;2023-03-01T01:30:09;95470.25;;;6.17;100.00
55424;BME280;41294;42.666;23.350;2023-03-01T01:32:34;95465.06;;;6.13;100.00
55424;BME280;41294;42.666;23.350;2023-03-01T01:35:00;95485.81;;;6.24;100.00
55424;BME280;41294;42.666;23.350;2023-03-01T01:37:25;95478.88;;;6.37;100.00
55424;BME280;41294;42.666;23.350;2023-03-01T01:39:57;95491.00;;;6.50;100.00
55424;BME280;41294;42.666;23.350;2023-03-01T01:42:24;95499.72;;;6.44;100.00
55424;BME280;41294;42.666;23.350;2023-03-01T01:45:29;95496.41;;;6.40;100.00
55424;BME280;41294;42.666;23.350;2023-03-01T01:48:00;95490.63;;;6.52;100.00
55424;BME280;41294;42.666;23.350;2023-03-01T01:53:15;95491.63;;;6.35;100.00
55424;BME280;41294;42.666;23.350;2023-03-01T01:55:48;95479.81;;;6.27;100.00
55424;BME280;41294;42.666;23.350;2023-03-01T01:58:19;95482.78;;;6.25;100.00
55424;BME280;41294;42.666;23.350;2023-03-01T02:00:46;95483.09;;;6.31;100.00
55424;BME280;41294;42.666;23.350;2023-03-01T02:03:15;95480.94;;;6.26;100.00
55424;BME280;41294;42.666;23.350;2023-03-01T02:05:53;95478.75;;;6.21;100.00
55424;BME280;41294;42.666;23.350;2023-03-01T02:08:21;95469.72;;;6.25;100.00
55424;BME280;41294;42.666;23.350;2023-03-01T02:10:49;95466.50;;;6.18;100.00
55424;BME280;41294;42.666;23.350;2023-03-01T02:13:14;95457.50;;;6.19;100.00
55424;BME280;41294;42.666;23.350;2023-03-01T02:15:41;95460.56;;;6.14;100.00
55424;BME280;41294;42.666;23.350;2023-03-01T02:18:07;95458.53;;;6.25;100.00
55424;BME280;41294;42.666;23.350;2023-03-01T02:20:47;95473.16;;;6.22;100.00
55424;BME280;41294;42.666;23.350;2023-03-01T02:23:16;95458.31;;;6.16;100.00
55424;BME280;41294;42.666;23.350;2023-03-01T02:25:51;95466.50;;;6.14;100.00
55424;BME280;41294;42.666;23.350;2023-03-01T02:28:20;95480.59;;;6.24;100.00
55424;BME280;41294;42.666;23.350;2023-03-01T02:30:48;95459.09;;;6.13;100.00
55424;BME280;41294;42.666;23.350;2023-03-01T02:33:34;95471.59;;;6.25;100.00
55424;BME280;41294;42.666;23.350;2023-03-01T02:36:08;95473.56;;;6.17;100.00
55424;BME280;41294;42.666;23.350;2023-03-01T02:38:34;95485.81;;;6.24;100.00
55424;BME280;41294;42.666;23.350;2023-03-01T02:41:00;95487.81;;;6.13;100.00
55424;BME280;41294;42.666;23.350;2023-03-01T02:43:31;95477.63;;;6.22;100.00
55424;BME280;41294;42.666;23.350;2023-03-01T02:46:03;95472.59;;;6.08;100.00
55424;BME280;41294;42.666;23.350;2023-03-01T02:48:43;95471.59;;;5.98;100.00
55424;BME280;41294;42.666;23.350;2023-03-01T02:56:37;95466.03;;;6.23;100.00
55424;BME280;41294;42.666;23.350;2023-03-01T02:59:03;95461.16;;;6.25;100.00
55424;BME280;41294;42.666;23.350;2023-03-01T03:01:29;95471.25;;;6.23;100.00
55424;BME280;41294;42.666;23.350;2023-03-01T03:04:14;95470.34;;;6.10;100.00
55424;BME280;41294;42.666;23.350;2023-03-01T03:06:48;95475.41;;;6.20;100.00
55424;BME280;41294;42.666;23.350;2023-03-01T03:09:15;95463.88;;;6.18;100.00
55424;BME280;41294;42.666;23.350;2023-03-01T03:11:41;95469.38;;;6.23;100.00
55424;BME280;41294;42.666;23.350;2023-03-01T03:14:09;95466.16;;;6.39;100.00
55424;BME280;41294;42.666;23.350;2023-03-01T03:16:46;95474.47;;;6.34;100.00
55424;BME280;41294;42.666;23.350;2023-03-01T03:19:12;95472.88;;;6.40;100.00
55424;BME280;41294;42.666;23.350;2023-03-01T03:21:38;95478.81;;;6.17;100.00
55424;BME280;41294;42.666;23.350;2023-03-01T03:24:03;95480.09;;;6.06;100.00
55424;BME280;41294;42.666;23.350;2023-03-01T03:26:30;95477.47;;;6.06;100.00
55424;BME280;41294;42.666;23.350;2023-03-01T03:28:55;95487.94;;;6.06;100.00
55424;BME280;41294;42.666;23.350;2023-03-01T03:31:22;95479.06;;;6.00;100.00
55424;BME280;41294;42.666;23.350;2023-03-01T03:33:47;95476.50;;;5.96;100.00
55424;BME280;41294;42.666;23.350;2023-03-01T03:36:21;95478.97;;;6.07;100.00
55424;BME280;41294;42.666;23.350;2023-03-01T03:38:46;95478.50;;;6.12;100.00
55424;BME280;41294;42.666;23.350;2023-03-01T03:41:12;95476.88;;;6.21;100.00
55424;BME280;41294;42.666;23.350;2023-03-01T03:43:40;95485.03;;;6.27;100.00
55424;BME280;41294;42.666;23.350;2023-03-01T03:49:27;95486.03;;;6.10;100.00
55424;BME280;41294;42.666;23.350;2023-03-01T03:51:52;95480.00;;;6.13;100.00
55424;BME280;41294;42.666;23.350;2023-03-01T03:54:17;95488.22;;;6.11;100.00
55424;BME280;41294;42.666;23.350;2023-03-01T03:56:43;95486.91;;;6.00;100.00
55424;BME280;41294;42.666;23.350;2023-03-01T03:59:27;95485.41;;;5.99;100.00
55424;BME280;41294;42.666;23.350;2023-03-01T04:01:52;95478.00;;;5.94;100.00
55424;BME280;41294;42.666;23.350;2023-03-01T04:04:18;95485.69;;;5.78;100.00
55424;BME280;41294;42.666;23.350;2023-03-01T04:06:44;95486.53;;;5.68;100.00
55424;BME280;41294;42.666;23.350;2023-03-01T04:09:09;95493.88;;;5.80;100.00
55424;BME280;41294;42.666;23.350;2023-03-01T04:11:34;95498.31;;;5.83;100.00
55424;BME280;41294;42.666;23.350;2023-03-01T04:14:00;95498.34;;;5.79;100.00
55424;BME280;41294;42.666;23.350;2023-03-01T04:16:25;95499.44;;;5.82;100.00
55424;BME280;41294;42.666;23.350;2023-03-01T04:18:51;95488.69;;;5.76;100.00
55424;BME280;41294;42.666;23.350;2023-03-01T04:21:18;95495.88;;;5.99;100.00
55424;BME280;41294;42.666;23.350;2023-03-01T04:23:45;95485.59;;;5.85;100.00
55424;BME280;41294;42.666;23.350;2023-03-01T04:26:10;95493.00;;;5.90;100.00
55424;BME280;41294;42.666;23.350;2023-03-01T04:28:41;95501.22;;;5.88;100.00
55424;BME280;41294;42.666;23.350;2023-03-01T04:31:12;95492.00;;;5.80;100.00
55424;BME280;41294;42.666;23.350;2023-03-01T04:33:41;95497.88;;;5.88;100.00
55424;BME280;41294;42.666;23.350;2023-03-01T04:36:09;95493.69;;;5.94;100.00
55424;BME280;41294;42.666;23.350;2023-03-01T04:38:36;95487.19;;;6.05;100.00
55424;BME280;41294;42.666;23.350;2023-03-01T04:41:06;95495.16;;;5.95;100.00
55424;BME280;41294;42.666;23.350;2023-03-01T04:43:32;95482.00;;;6.02;100.00
55424;BME280;41294;42.666;23.350;2023-03-01T04:46:08;95502.38;;;6.14;100.00
55424;BME280;41294;42.666;23.350;2023-03-01T04:48:39;95491.88;;;6.17;100.00
55424;BME280;41294;42.666;23.350;2023-03-01T04:51:05;95485.03;;;6.27;100.00
55424;BME280;41294;42.666;23.350;2023-03-01T04:53:32;95484.44;;;6.16;100.00
55424;BME280;41294;42.666;23.350;2023-03-01T04:55:58;95473.28;;;6.12;100.00
55424;BME280;41294;42.666;23.350;2023-03-01T04:58:26;95476.50;;;6.23;100.00
55424;BME280;41294;42.666;23.350;2023-03-01T05:00:52;95485.06;;;6.23;100.00
55424;BME280;41294;42.666;23.350;2023-03-01T05:03:17;95486.84;;;6.03;100.00
55424;BME280;41294;42.666;23.350;2023-03-01T05:05:44;95491.25;;;5.80;100.00
55424;BME280;41294;42.666;23.350;2023-03-01T05:08:10;95484.81;;;5.88;100.00
55424;BME280;41294;42.666;23.350;2023-03-01T05:10:48;95487.78;;;5.90;100.00
55424;BME280;41294;42.666;23.350;2023-03-01T05:13:14;95486.97;;;5.93;100.00
55424;BME280;41294;42.666;23.350;2023-03-01T05:15:56;95483.47;;;5.76;100.00
55424;BME280;41294;42.666;23.350;2023-03-01T05:18:22;95495.31;;;5.84;100.00
55424;BME280;41294;42.666;23.350;2023-03-01T05:20:54;95492.81;;;5.74;100.00
55424;BME280;41294;42.666;23.350;2023-03-01T05:23:22;95501.41;;;5.71;100.00
55424;BME280;41294;42.666;23.350;2023-03-01T05:25:47;95494.56;;;5.84;100.00
55424;BME280;41294;42.666;23.350;2023-03-01T05:28:14;95484.47;;;5.86;100.00
55424;BME280;41294;42.666;23.350;2023-03-01T05:30:40;95483.22;;;5.94;100.00
55424;BME280;41294;42.666;23.350;2023-03-01T05:33:06;95490.41;;;5.90;100.00
55424;BME280;41294;42.666;23.350;2023-03-01T05:35:42;95492.63;;;6.18;100.00
55424;BME280;41294;42.666;23.350;2023-03-01T05:38:08;95487.28;;;6.25;100.00
55424;BME280;41294;42.666;23.350;2023-03-01T05:40:34;95492.56;;;6.21;100.00
55424;BME280;41294;42.666;23.350;2023-03-01T05:43:00;95492.94;;;6.20;100.00
55424;BME280;41294;42.666;23.350;2023-03-01T05:45:27;95495.84;;;6.25;100.00
55424;BME280;41294;42.666;23.350;2023-03-01T05:47:53;95495.88;;;5.99;100.00
55424;BME280;41294;42.666;23.350;2023-03-01T05:50:23;95490.41;;;5.90;100.00
55424;BME280;41294;42.666;23.350;2023-03-01T05:52:52;95505.81;;;5.81;100.00
55424;BME280;41294;42.666;23.350;2023-03-01T05:55:21;95509.16;;;5.81;100.00
55424;BME280;41294;42.666;23.350;2023-03-01T05:57:47;95504.59;;;5.89;100.00
55424;BME280;41294;42.666;23.350;2023-03-01T06:00:15;95508.06;;;5.79;100.00
55424;BME280;41294;42.666;23.350;2023-03-01T06:02:41;95523.00;;;5.75;100.00
55424;BME280;41294;42.666;23.350;2023-03-01T06:05:08;95513.28;;;5.79;100.00
55424;BME280;41294;42.666;23.350;2023-03-01T06:07:34;95522.09;;;5.92;100.00
55424;BME280;41294;42.666;23.350;2023-03-01T06:10:00;95520.78;;;5.73;100.00
55424;BME280;41294;42.666;23.350;2023-03-01T06:12:25;95527.06;;;5.83;100.00
55424;BME280;41294;42.666;23.350;2023-03-01T06:14:51;95522.66;;;5.73;100.00
55424;BME280;41294;42.666;23.350;2023-03-01T06:17:16;95537.97;;;5.71;100.00
55424;BME280;41294;42.666;23.350;2023-03-01T06:19:42;95535.38;;;5.71;100.00
55424;BME280;41294;42.666;23.350;2023-03-01T06:22:07;95538.31;;;5.76;100.00
55424;BME280;41294;42.666;23.350;2023-03-01T06:24:33;95531.47;;;5.86;100.00
55424;BME280;41294;42.666;23.350;2023-03-01T06:26:59;95538.59;;;5.85;100.00
55424;BME280;41294;42.666;23.350;2023-03-01T06:29:24;95542.00;;;5.79;100.00
55424;BME280;41294;42.666;23.350;2023-03-01T06:31:49;95538.31;;;5.76;100.00
55424;BME280;41294;42.666;23.350;2023-03-01T06:34:15;95526.69;;;5.81;100.00
55424;BME280;41294;42.666;23.350;2023-03-01T06:36:40;95532.31;;;5.76;100.00
55424;BME280;41294;42.666;23.350;2023-03-01T06:39:06;95530.53;;;5.69;100.00
55424;BME280;41294;42.666;23.350;2023-03-01T06:41:32;95541.88;;;5.89;100.00
55424;BME280;41294;42.666;23.350;2023-03-01T06:43:59;95539.16;;;6.00;100.00
55424;BME280;41294;42.666;23.350;2023-03-01T06:46:24;95531.78;;;5.91;100.00
55424;BME280;41294;42.666;23.350;2023-03-01T06:48:49;95535.47;;;5.94;100.00
55424;BME280;41294;42.666;23.350;2023-03-01T06:51:15;95537.66;;;5.99;100.00
55424;BME280;41294;42.666;23.350;2023-03-01T06:53:40;95532.88;;;5.94;100.00
55424;BME280;41294;42.666;23.350;2023-03-01T06:56:06;95533.31;;;5.89;100.00
55424;BME280;41294;42.666;23.350;2023-03-01T06:58:31;95534.34;;;5.95;100.00
55424;BME280;41294;42.666;23.350;2023-03-01T07:00:57;95541.31;;;6.05;100.00
55424;BME280;41294;42.666;23.350;2023-03-01T07:03:22;95535.53;;;5.90;100.00
55424;BME280;41294;42.666;23.350;2023-03-01T07:05:51;95532.53;;;5.92;100.00
55424;BME280;41294;42.666;23.350;2023-03-01T07:08:17;95530.09;;;6.08;100.00
55424;BME280;41294;42.666;23.350;2023-03-01T07:10:43;95538.69;;;6.35;100.00
55424;BME280;41294;42.666;23.350;2023-03-01T07:13:08;95532.97;;;6.17;100.00
55424;BME280;41294;42.666;23.350;2023-03-01T07:15:34;95532.19;;;5.90;100.00
55424;BME280;41294;42.666;23.350;2023-03-01T07:17:59;95536.50;;;6.03;100.00
55424;BME280;41294;42.666;23.350;2023-03-01T07:20:25;95534.66;;;6.00;100.00
55424;BME280;41294;42.666;23.350;2023-03-01T07:22:51;95525.16;;;6.13;100.00
55424;BME280;41294;42.666;23.350;2023-03-01T07:25:17;95525.13;;;6.17;100.00
55424;BME280;41294;42.666;23.350;2023-03-01T07:27:43;95527.03;;;6.13;100.00
55424;BME280;41294;42.666;23.350;2023-03-01T07:30:09;95524.34;;;6.16;100.00
55424;BME280;41294;42.666;23.350;2023-03-01T07:32:34;95517.31;;;6.13;100.00
55424;BME280;41294;42.666;23.350;2023-03-01T07:35:00;95521.03;;;6.16;100.00
55424;BME280;41294;42.666;23.350;2023-03-01T07:37:26;95514.03;;;6.36;100.00
55424;BME280;41294;42.666;23.350;2023-03-01T07:39:51;95521.19;;;6.54;100.00
55424;BME280;41294;42.666;23.350;2023-03-01T07:42:16;95522.09;;;6.45;100.00
55424;BME280;41294;42.666;23.350;2023-03-01T07:45:00;95531.72;;;6.51;100.00
55424;BME280;41294;42.666;23.350;2023-03-01T07:47:25;95512.44;;;6.64;100.00
55424;BME280;41294;42.666;23.350;2023-03-01T07:49:51;95518.19;;;6.56;100.00
55424;BME280;41294;42.666;23.350;2023-03-01T07:52:17;95517.22;;;6.92;100.00
55424;BME280;41294;42.666;23.350;2023-03-01T07:54:43;95526.56;;;6.70;100.00
55424;BME280;41294;42.666;23.350;2023-03-01T07:57:10;95508.94;;;6.74;100.00
55424;BME280;41294;42.666;23.350;2023-03-01T07:59:35;95511.38;;;6.62;100.00
55424;BME280;41294;42.666;23.350;2023-03-01T08:02:00;95508.81;;;6.81;100.00
55424;BME280;41294;42.666;23.350;2023-03-01T08:04:26;95515.88;;;6.61;100.00
55424;BME280;41294;42.666;23.350;2023-03-01T08:06:52;95515.28;;;6.51;100.00
55424;BME280;41294;42.666;23.350;2023-03-01T08:09:18;95503.22;;;6.56;100.00
55424;BME280;41294;42.666;23.350;2023-03-01T08:11:43;95508.66;;;6.92;100.00
55424;BME280;41294;42.666;23.350;2023-03-01T08:14:09;95503.56;;;6.81;100.00
55424;BME280;41294;42.666;23.350;2023-03-01T08:16:36;95508.75;;;6.85;100.00
55424;BME280;41294;42.666;23.350;2023-03-01T08:19:11;95501.13;;;6.71;100.00
55424;BME280;41294;42.666;23.350;2023-03-01T08:21:37;95496.91;;;6.77;100.00
55424;BME280;41294;42.666;23.350;2023-03-01T08:24:04;95498.13;;;6.95;100.00
55424;BME280;41294;42.666;23.350;2023-03-01T08:26:31;95499.69;;;6.89;99.50
55424;BME280;41294;42.666;23.350;2023-03-01T08:28:56;95504.72;;;7.03;98.68
55424;BME280;41294;42.666;23.350;2023-03-01T08:31:28;95505.88;;;6.79;99.93
55424;BME280;41294;42.666;23.350;2023-03-01T08:33:57;95510.53;;;6.68;100.00
55424;BME280;41294;42.666;23.350;2023-03-01T08:36:35;95504.09;;;6.96;100.00
55424;BME280;41294;42.666;23.350;2023-03-01T08:39:02;95489.19;;;6.93;98.77
55424;BME280;41294;42.666;23.350;2023-03-01T08:41:28;95490.16;;;7.02;98.54
55424;BME280;41294;42.666;23.350;2023-03-01T08:43:53;95503.16;;;7.06;98.14
55424;BME280;41294;42.666;23.350;2023-03-01T08:46:27;95511.16;;;6.99;96.83
55424;BME280;41294;42.666;23.350;2023-03-01T08:48:53;95506.19;;;7.04;96.67
55424;BME280;41294;42.666;23.350;2023-03-01T08:51:20;95504.59;;;7.10;96.50
55424;BME280;41294;42.666;23.350;2023-03-01T08:53:46;95503.28;;;7.41;95.29
55424;BME280;41294;42.666;23.350;2023-03-01T08:56:12;95502.22;;;7.58;93.56
55424;BME280;41294;42.666;23.350;2023-03-01T08:58:38;95500.84;;;7.11;94.62
55424;BME280;41294;42.666;23.350;2023-03-01T09:01:09;95497.56;;;7.27;93.98
55424;BME280;41294;42.666;23.350;2023-03-01T09:03:34;95510.56;;;7.11;95.25
55424;BME280;41294;42.666;23.350;2023-03-01T09:06:01;95507.50;;;7.35;93.49
55424;BME280;41294;42.666;23.350;2023-03-01T09:08:27;95497.69;;;7.20;94.84
55424;BME280;41294;42.666;23.350;2023-03-01T09:10:52;95501.97;;;7.10;95.01
55424;BME280;41294;42.666;23.350;2023-03-01T09:13:18;95490.09;;;7.25;94.99
55424;BME280;41294;42.666;23.350;2023-03-01T09:15:43;95508.34;;;7.09;94.74
55424;BME280;41294;42.666;23.350;2023-03-01T09:18:09;95511.16;;;6.99;96.03
55424;BME280;41294;42.666;23.350;2023-03-01T09:20:34;95506.53;;;7.06;95.97
55424;BME280;41294;42.666;23.350;2023-03-01T09:23:00;95502.53;;;6.98;95.86
55424;BME280;41294;42.666;23.350;2023-03-01T09:25:25;95490.84;;;7.06;96.49
55424;BME280;41294;42.666;23.350;2023-03-01T09:27:51;95504.84;;;6.96;96.83
55424;BME280;41294;42.666;23.350;2023-03-01T09:30:17;95500.69;;;7.18;95.98
55424;BME280;41294;42.666;23.350;2023-03-01T09:32:43;95492.84;;;7.18;95.44
55424;BME280;41294;42.666;23.350;2023-03-01T09:35:10;95499.13;;;7.01;96.53
55424;BME280;41294;42.666;23.350;2023-03-01T09:37:36;95500.00;;;6.95;96.10
55424;BME280;41294;42.666;23.350;2023-03-01T09:40:14;95489.56;;;7.14;95.54
55424;BME280;41294;42.666;23.350;2023-03-01T09:42:50;95499.78;;;7.28;94.83
55424;BME280;41294;42.666;23.350;2023-03-01T09:45:26;95487.63;;;7.37;95.50
55424;BME280;41294;42.666;23.350;2023-03-01T09:47:53;95484.00;;;7.51;94.22
55424;BME280;41294;42.666;23.350;2023-03-01T09:50:21;95478.75;;;7.32;95.68
55424;BME280;41294;42.666;23.350;2023-03-01T09:55:26;95477.81;;;7.41;95.12
55424;BME280;41294;42.666;23.350;2023-03-01T09:58:41;95475.69;;;7.36;94.45
55424;BME280;41294;42.666;23.350;2023-03-01T10:01:32;95468.50;;;7.21;96.04
55424;BME280;41294;42.666;23.350;2023-03-01T10:04:18;95465.16;;;7.40;95.40
55424;BME280;41294;42.666;23.350;2023-03-01T10:07:02;95460.41;;;7.51;94.83
55424;BME280;41294;42.666;23.350;2023-03-01T10:09:33;95465.81;;;7.44;94.94
55424;BME280;41294;42.666;23.350;2023-03-01T10:12:00;95459.63;;;7.54;94.68
55424;BME280;41294;42.666;23.350;2023-03-01T10:14:38;95457.06;;;7.50;93.62
55424;BME280;41294;42.666;23.350;2023-03-01T10:17:24;95467.09;;;7.36;95.08
55424;BME280;41294;42.666;23.350;2023-03-01T10:19:51;95463.44;;;7.49;94.99
55424;BME280;41294;42.666;23.350;2023-03-01T10:22:24;95465.63;;;7.54;94.17
55424;BME280;41294;42.666;23.350;2023-03-01T10:24:53;95447.28;;;7.35;94.54
55424;BME280;41294;42.666;23.350;2023-03-01T10:27:40;95457.59;;;7.42;94.59
55424;BME280;41294;42.666;23.350;2023-03-01T10:30:27;95444.00;;;7.31;95.57
55424;BME280;41294;42.666;23.350;2023-03-01T10:32:56;95428.75;;;7.26;95.09
55424;BME280;41294;42.666;23.350;2023-03-01T10:35:24;95456.81;;;7.45;95.25
55424;BME280;41294;42.666;23.350;2023-03-01T10:38:17;95441.03;;;7.48;93.95
55424;BME280;41294;42.666;23.350;2023-03-01T10:43:16;95424.03;;;7.37;93.75
55424;BME280;41294;42.666;23.350;2023-03-01T10:45:42;95419.81;;;7.43;94.04
55424;BME280;41294;42.666;23.350;2023-03-01T10:50:35;95432.94;;;7.78;91.71
55424;BME280;41294;42.666;23.350;2023-03-01T10:53:04;95425.41;;;7.80;92.65
55424;BME280;41294;42.666;23.350;2023-03-01T10:55:38;95426.91;;;7.62;92.70
55424;BME280;41294;42.666;23.350;2023-03-01T10:58:24;95418.59;;;7.83;91.54
55424;BME280;41294;42.666;23.350;2023-03-01T11:00:52;95415.84;;;8.06;90.46
55424;BME280;41294;42.666;23.350;2023-03-01T11:03:26;95422.91;;;8.56;88.20
55424;BME280;41294;42.666;23.350;2023-03-01T11:05:56;95420.88;;;8.32;88.44
55424;BME280;41294;42.666;23.350;2023-03-01T11:08:36;95413.50;;;8.59;87.72
55424;BME280;41294;42.666;23.350;2023-03-01T11:11:10;95433.00;;;8.26;88.89
55424;BME280;41294;42.666;23.350;2023-03-01T11:16:32;95423.53;;;7.97;90.94
55424;BME280;41294;42.666;23.350;2023-03-01T11:19:14;95422.38;;;7.98;91.08
55424;BME280;41294;42.666;23.350;2023-03-01T11:24:39;95419.97;;;8.22;89.71
55424;BME280;41294;42.666;23.350;2023-03-01T11:27:23;95420.44;;;8.02;88.93
55424;BME280;41294;42.666;23.350;2023-03-01T11:33:01;95424.44;;;8.06;89.48
55424;BME280;41294;42.666;23.350;2023-03-01T11:35:29;95418.97;;;8.01;90.37
55424;BME280;41294;42.666;23.350;2023-03-01T11:40:30;95406.84;;;8.22;90.96
55424;BME280;41294;42.666;23.350;2023-03-01T11:46:08;95393.44;;;8.36;89.10
55424;BME280;41294;42.666;23.350;2023-03-01T11:51:52;95396.53;;;8.16;90.81
55424;BME280;41294;42.666;23.350;2023-03-01T11:54:39;95380.72;;;8.35;90.30
55424;BME280;41294;42.666;23.350;2023-03-01T12:00:12;95376.69;;;7.99;91.36
55424;BME280;41294;42.666;23.350;2023-03-01T12:08:28;95381.84;;;8.50;89.49
55424;BME280;41294;42.666;23.350;2023-03-01T12:11:37;95385.97;;;8.79;87.53
55424;BME280;41294;42.666;23.350;2023-03-01T12:24:47;95361.59;;;8.79;87.61
55424;BME280;41294;42.666;23.350;2023-03-01T12:30:32;95369.66;;;8.27;89.30
55424;BME280;41294;42.666;23.350;2023-03-01T12:35:49;95367.91;;;8.53;89.49
55424;BME280;41294;42.666;23.350;2023-03-01T12:49:35;95343.53;;;9.09;86.20
55424;BME280;41294;42.666;23.350;2023-03-01T12:54:49;95351.78;;;8.95;86.11
55424;BME280;41294;42.666;23.350;2023-03-01T12:57:33;95352.94;;;8.37;89.04
55424;BME280;41294;42.666;23.350;2023-03-01T13:00:32;95342.63;;;8.87;86.65
55424;BME280;41294;42.666;23.350;2023-03-01T13:06:47;95362.06;;;8.61;87.33
55424;BME280;41294;42.666;23.350;2023-03-01T13:15:32;95345.56;;;8.77;87.26
55424;BME280;41294;42.666;23.350;2023-03-01T13:17:59;95358.28;;;8.62;88.33
55424;BME280;41294;42.666;23.350;2023-03-01T13:26:11;95346.47;;;8.70;87.46
55424;BME280;41294;42.666;23.350;2023-03-01T13:28:47;95356.16;;;8.57;88.54
55424;BME280;41294;42.666;23.350;2023-03-01T13:44:25;95359.91;;;8.72;86.62
55424;BME280;41294;42.666;23.350;2023-03-01T13:54:58;95352.47;;;8.83;86.12
55424;BME280;41294;42.666;23.350;2023-03-01T13:57:34;95346.38;;;8.29;89.27
55424;BME280;41294;42.666;23.350;2023-03-01T14:00:03;95341.88;;;8.30;89.10
55424;BME280;41294;42.666;23.350;2023-03-01T14:02:29;95340.66;;;8.18;89.62
55424;BME280;41294;42.666;23.350;2023-03-01T14:04:59;95338.50;;;8.13;90.83
55424;BME280;41294;42.666;23.350;2023-03-01T14:07:26;95344.09;;;8.00;92.26
55424;BME280;41294;42.666;23.350;2023-03-01T14:09:58;95346.06;;;8.12;91.29
55424;BME280;41294;42.666;23.350;2023-03-01T14:15:29;95337.72;;;8.17;92.60
55424;BME280;41294;42.666;23.350;2023-03-01T14:18:04;95330.19;;;8.18;92.50
55424;BME280;41294;42.666;23.350;2023-03-01T14:20:40;95339.34;;;8.11;92.90
55424;BME280;41294;42.666;23.350;2023-03-01T14:23:15;95348.53;;;8.03;93.83
55424;BME280;41294;42.666;23.350;2023-03-01T14:25:51;95337.63;;;7.88;94.47
55424;BME280;41294;42.666;23.350;2023-03-01T14:28:20;95334.75;;;7.99;93.61
55424;BME280;41294;42.666;23.350;2023-03-01T14:30:49;95342.94;;;8.01;93.81
55424;BME280;41294;42.666;23.350;2023-03-01T14:33:32;95348.44;;;8.06;93.05
55424;BME280;41294;42.666;23.350;2023-03-01T14:36:12;95347.94;;;7.79;94.33
55424;BME280;41294;42.666;23.350;2023-03-01T14:38:40;95342.94;;;7.85;95.51
55424;BME280;41294;42.666;23.350;2023-03-01T14:41:27;95352.25;;;7.86;97.89
55424;BME280;41294;42.666;23.350;2023-03-01T14:44:16;95342.94;;;7.85;98.06
55424;BME280;41294;42.666;23.350;2023-03-01T14:46:45;95340.06;;;7.63;100.00
55424;BME280;41294;42.666;23.350;2023-03-01T14:49:14;95328.03;;;7.50;99.97
55424;BME280;41294;42.666;23.350;2023-03-01T14:51:42;95332.44;;;7.69;99.72
55424;BME280;41294;42.666;23.350;2023-03-01T14:54:31;95328.13;;;7.78;99.05
55424;BME280;41294;42.666;23.350;2023-03-01T14:57:01;95341.72;;;8.05;97.76
55424;BME280;41294;42.666;23.350;2023-03-01T14:59:27;95342.94;;;7.85;98.71
55424;BME280;41294;42.666;23.350;2023-03-01T15:01:55;95336.53;;;7.70;99.45